This is the latest recevied weather packets stored in our database for station/object K1RTA-1. If no packets are shown the sender has not sent any weather packets the latest 10 day(s).
| Time | Temp. | Humidity | Pressure | Rain* | Wind** | Luminosity | Snow |
|---|---|---|---|---|---|---|---|
| 1777728090 | 13.89° C | 69% | 1014.4 hPa | 0 mm | - | - | - |
| 1777727190 | 12.78° C | 71% | 1014.4 hPa | 0 mm | - | - | - |
| 1777726289 | 12.78° C | 71% | 1014.3 hPa | 0 mm | - | - | - |
| 1777725390 | 12.78° C | 72% | 1014.1 hPa | 0 mm | - | - | - |
| 1777724489 | 12.22° C | 74% | 1014.1 hPa | 0 mm | - | - | - |
| 1777723590 | 11.67° C | 76% | 1014.3 hPa | 0 mm | - | - | - |
| 1777722690 | 11.67° C | 78% | 1014 hPa | 0 mm | - | - | - |
| 1777721790 | 11.11° C | 79% | 1014 hPa | 0 mm | - | - | - |
| 1777720889 | 10.56° C | 82% | 1014.2 hPa | 0 mm | - | - | - |
| 1777719989 | 10° C | 85% | 1014.3 hPa | 0 mm | - | - | - |
| 1777719090 | 8.89° C | 87% | 1014.2 hPa | 0 mm | - | - | - |
| 1777718190 | 7.78° C | 91% | 1014.2 hPa | 0 mm | - | - | - |
| 1777717290 | 6.67° C | 89% | 1014.1 hPa | 0 mm | - | - | - |
| 1777716390 | 6.67° C | 89% | 1013.9 hPa | 0 mm | - | - | - |
| 1777715489 | 6.67° C | 88% | 1014 hPa | 0 mm | - | - | - |
| 1777714590 | 6.67° C | 87% | 1013.7 hPa | 0 mm | - | - | - |
| 1777713689 | 7.22° C | 86% | 1013.9 hPa | 0 mm | - | - | - |
| 1777712790 | 7.22° C | 85% | 1013.5 hPa | 0 mm | - | - | - |
| 1777711890 | 7.78° C | 84% | 1013.7 hPa | 0 mm | - | - | - |
| 1777710989 | 7.78° C | 85% | 1013.8 hPa | 0 mm | - | - | - |
| 1777710090 | 7.78° C | 85% | 1013.6 hPa | 0 mm | - | - | - |
| 1777709190 | 7.22° C | 88% | 1013.5 hPa | 0 mm | - | - | - |
| 1777708291 | 6.67° C | 88% | 1013.7 hPa | 0 mm | - | - | - |
| 1777707390 | 6.67° C | 88% | 1013.8 hPa | 0 mm | - | - | - |
| 1777706489 | 6.67° C | 88% | 1013.7 hPa | 0 mm | - | - | - |
* Rain latest hour (hover to see other rain measurements)
** Current wind speed in m/s (hover to see current wind gust speed)